Cuero, Texas
Current Conditions -  °F | °C
As of 10:51 AM on Saturday 25 Oct 2014 (Local Time) from KVCT Reporting Station
Clear Clear  
Wind Chill: 79°   Ceiling: Unl
Heat Index: 80°   Visibility: 10mi
Dew Point: 61°   Wind: 5mph
Humidity: 54%   Direction: 290°WNW
Pressure: 30.19"   Gusts: NA
Location:  29.09°N, 97.29°W
Report Text: KVCT 251551Z 29004KT 10SM CLR 26/16 A3019 RMK AO2 SLP222 T02610161
Loading
Personal Weather Stations






























Interactive Weather Map
Tropical Storm Tracking
New forecast layout! Learn more

10-Day Weather Forecast

Advertisements
Track Severe Weather on mobile